sensor_id;sensor_type;location;lat;lon;timestamp;temperature;humidity
77218;DHT22;66214;51.302;17.068;2024-03-22T00:02:09;10.75;79.15
77218;DHT22;66214;51.302;17.068;2024-03-22T00:04:36;10.74;78.90
77218;DHT22;66214;51.302;17.068;2024-03-22T00:07:03;10.73;78.51
77218;DHT22;66214;51.302;17.068;2024-03-22T00:09:30;10.72;78.17
77218;DHT22;66214;51.302;17.068;2024-03-22T00:11:58;10.71;78.00
77218;DHT22;66214;51.302;17.068;2024-03-22T00:14:24;10.69;78.01
77218;DHT22;66214;51.302;17.068;2024-03-22T00:16:51;10.66;78.19
77218;DHT22;66214;51.302;17.068;2024-03-22T00:19:18;10.68;78.42
77218;DHT22;66214;51.302;17.068;2024-03-22T00:21:45;10.67;78.52
77218;DHT22;66214;51.302;17.068;2024-03-22T00:24:12;10.69;78.37
77218;DHT22;66214;51.302;17.068;2024-03-22T00:26:38;10.68;77.98
77218;DHT22;66214;51.302;17.068;2024-03-22T00:29:05;10.67;77.60
77218;DHT22;66214;51.302;17.068;2024-03-22T00:31:32;10.65;77.24
77218;DHT22;66214;51.302;17.068;2024-03-22T00:33:59;10.62;77.03
77218;DHT22;66214;51.302;17.068;2024-03-22T00:36:26;10.60;76.94
77218;DHT22;66214;51.302;17.068;2024-03-22T00:38:52;10.59;77.12
77218;DHT22;66214;51.302;17.068;2024-03-22T00:41:19;10.59;77.35
77218;DHT22;66214;51.302;17.068;2024-03-22T00:43:46;10.60;77.41
77218;DHT22;66214;51.302;17.068;2024-03-22T00:46:12;10.61;77.31
77218;DHT22;66214;51.302;17.068;2024-03-22T00:48:39;10.60;76.92
77218;DHT22;66214;51.302;17.068;2024-03-22T00:51:06;10.59;76.58
77218;DHT22;66214;51.302;17.068;2024-03-22T00:53:33;10.59;76.27
77218;DHT22;66214;51.302;17.068;2024-03-22T00:56:00;10.56;76.08
77218;DHT22;66214;51.302;17.068;2024-03-22T00:58:27;10.53;76.11
77218;DHT22;66214;51.302;17.068;2024-03-22T01:00:54;10.52;76.29
77218;DHT22;66214;51.302;17.068;2024-03-22T01:03:22;10.51;76.48
77218;DHT22;66214;51.302;17.068;2024-03-22T01:09:12;10.54;76.76
77218;DHT22;66214;51.302;17.068;2024-03-22T01:11:40;10.54;76.29
77218;DHT22;66214;51.302;17.068;2024-03-22T01:14:08;10.52;75.85
77218;DHT22;66214;51.302;17.068;2024-03-22T01:16:36;10.49;75.43
77218;DHT22;66214;51.302;17.068;2024-03-22T01:19:04;10.46;75.11
77218;DHT22;66214;51.302;17.068;2024-03-22T01:21:31;10.42;74.93
77218;DHT22;66214;51.302;17.068;2024-03-22T01:23:59;10.40;75.16
77218;DHT22;66214;51.302;17.068;2024-03-22T01:26:27;10.37;75.38
77218;DHT22;66214;51.302;17.068;2024-03-22T01:28:55;10.38;75.40
77218;DHT22;66214;51.302;17.068;2024-03-22T01:31:23;10.36;75.03
77218;DHT22;66214;51.302;17.068;2024-03-22T01:33:51;10.34;74.65
77218;DHT22;66214;51.302;17.068;2024-03-22T01:36:18;10.32;74.47
77218;DHT22;66214;51.302;17.068;2024-03-22T01:38:46;10.29;74.38
77218;DHT22;66214;51.302;17.068;2024-03-22T01:41:14;10.25;74.33
77218;DHT22;66214;51.302;17.068;2024-03-22T01:43:42;10.23;74.67
77218;DHT22;66214;51.302;17.068;2024-03-22T01:46:10;10.21;74.99
77218;DHT22;66214;51.302;17.068;2024-03-22T01:48:38;10.20;75.14
77218;DHT22;66214;51.302;17.068;2024-03-22T01:51:06;10.18;74.90
77218;DHT22;66214;51.302;17.068;2024-03-22T01:53:36;10.18;74.67
77218;DHT22;66214;51.302;17.068;2024-03-22T01:56:05;10.15;74.47
77218;DHT22;66214;51.302;17.068;2024-03-22T01:58:34;10.12;74.29
77218;DHT22;66214;51.302;17.068;2024-03-22T02:01:02;10.09;74.31
77218;DHT22;66214;51.302;17.068;2024-03-22T02:03:31;10.08;74.68
77218;DHT22;66214;51.302;17.068;2024-03-22T02:05:58;10.07;75.16
77218;DHT22;66214;51.302;17.068;2024-03-22T02:08:26;10.05;75.27
77218;DHT22;66214;51.302;17.068;2024-03-22T02:10:55;10.03;75.05
77218;DHT22;66214;51.302;17.068;2024-03-22T02:13:22;9.99;74.84
77218;DHT22;66214;51.302;17.068;2024-03-22T02:15:50;9.93;74.66
77218;DHT22;66214;51.302;17.068;2024-03-22T02:18:18;9.89;74.59
77218;DHT22;66214;51.302;17.068;2024-03-22T02:20:46;9.83;74.79
77218;DHT22;66214;51.302;17.068;2024-03-22T02:23:14;9.80;75.22
77218;DHT22;66214;51.302;17.068;2024-03-22T02:25:42;9.79;75.64
77218;DHT22;66214;51.302;17.068;2024-03-22T02:28:10;9.77;75.94
77218;DHT22;66214;51.302;17.068;2024-03-22T02:30:38;9.75;75.65
77218;DHT22;66214;51.302;17.068;2024-03-22T02:33:06;9.75;75.51
77218;DHT22;66214;51.302;17.068;2024-03-22T02:35:33;9.72;75.33
77218;DHT22;66214;51.302;17.068;2024-03-22T02:38:01;9.70;75.28
77218;DHT22;66214;51.302;17.068;2024-03-22T02:40:29;9.69;75.74
77218;DHT22;66214;51.302;17.068;2024-03-22T02:42:57;9.69;76.11
77218;DHT22;66214;51.302;17.068;2024-03-22T02:45:25;9.68;76.25
77218;DHT22;66214;51.302;17.068;2024-03-22T02:47:53;9.66;76.30
77218;DHT22;66214;51.302;17.068;2024-03-22T02:50:21;9.63;76.30
77218;DHT22;66214;51.302;17.068;2024-03-22T02:52:49;9.61;76.20
77218;DHT22;66214;51.302;17.068;2024-03-22T02:55:17;9.59;76.41
77218;DHT22;66214;51.302;17.068;2024-03-22T02:57:45;9.59;76.76
77218;DHT22;66214;51.302;17.068;2024-03-22T03:00:13;9.59;77.05
77218;DHT22;66214;51.302;17.068;2024-03-22T03:02:41;9.59;76.83
77218;DHT22;66214;51.302;17.068;2024-03-22T03:05:09;9.57;76.68
77218;DHT22;66214;51.302;17.068;2024-03-22T03:07:37;9.55;76.72
77218;DHT22;66214;51.302;17.068;2024-03-22T03:10:05;9.52;76.53
77218;DHT22;66214;51.302;17.068;2024-03-22T03:12:34;9.49;76.48
77218;DHT22;66214;51.302;17.068;2024-03-22T03:15:02;9.49;76.93
77218;DHT22;66214;51.302;17.068;2024-03-22T03:17:31;9.49;77.57
77218;DHT22;66214;51.302;17.068;2024-03-22T03:23:15;9.49;78.31
77218;DHT22;66214;51.302;17.068;2024-03-22T03:25:43;9.49;78.12
77218;DHT22;66214;51.302;17.068;2024-03-22T03:28:11;9.47;77.91
77218;DHT22;66214;51.302;17.068;2024-03-22T03:30:40;9.43;77.87
77218;DHT22;66214;51.302;17.068;2024-03-22T03:33:08;9.41;78.21
77218;DHT22;66214;51.302;17.068;2024-03-22T03:35:36;9.39;78.52
77218;DHT22;66214;51.302;17.068;2024-03-22T03:38:03;9.39;79.04
77218;DHT22;66214;51.302;17.068;2024-03-22T03:40:32;9.38;79.24
77218;DHT22;66214;51.302;17.068;2024-03-22T03:42:59;9.36;79.10
77218;DHT22;66214;51.302;17.068;2024-03-22T03:45:27;9.35;78.76
77218;DHT22;66214;51.302;17.068;2024-03-22T03:47:55;9.34;78.51
77218;DHT22;66214;51.302;17.068;2024-03-22T03:50:23;9.31;78.77
77218;DHT22;66214;51.302;17.068;2024-03-22T03:52:51;9.30;79.26
77218;DHT22;66214;51.302;17.068;2024-03-22T03:55:19;9.29;79.63
77218;DHT22;66214;51.302;17.068;2024-03-22T03:57:47;9.28;79.87
77218;DHT22;66214;51.302;17.068;2024-03-22T04:03:45;9.27;80.30
77218;DHT22;66214;51.302;17.068;2024-03-22T04:06:13;9.27;79.97
77218;DHT22;66214;51.302;17.068;2024-03-22T04:08:42;9.27;79.77
77218;DHT22;66214;51.302;17.068;2024-03-22T04:11:11;9.27;79.98
77218;DHT22;66214;51.302;17.068;2024-03-22T04:13:39;9.26;80.41
77218;DHT22;66214;51.302;17.068;2024-03-22T04:16:07;9.27;80.53
77218;DHT22;66214;51.302;17.068;2024-03-22T04:18:35;9.26;80.46
77218;DHT22;66214;51.302;17.068;2024-03-22T04:21:03;9.27;80.27
77218;DHT22;66214;51.302;17.068;2024-03-22T04:23:32;9.27;80.06
77218;DHT22;66214;51.302;17.068;2024-03-22T04:26:00;9.25;79.85
77218;DHT22;66214;51.302;17.068;2024-03-22T04:31:46;9.29;80.94
77218;DHT22;66214;51.302;17.068;2024-03-22T04:34:14;9.28;81.01
77218;DHT22;66214;51.302;17.068;2024-03-22T04:36:42;9.26;80.94
77218;DHT22;66214;51.302;17.068;2024-03-22T04:39:10;9.23;80.55
77218;DHT22;66214;51.302;17.068;2024-03-22T04:41:39;9.19;80.51
77218;DHT22;66214;51.302;17.068;2024-03-22T04:44:07;9.16;81.16
77218;DHT22;66214;51.302;17.068;2024-03-22T04:46:35;9.12;81.50
77218;DHT22;66214;51.302;17.068;2024-03-22T04:49:03;9.07;81.83
77218;DHT22;66214;51.302;17.068;2024-03-22T04:51:31;9.03;82.04
77218;DHT22;66214;51.302;17.068;2024-03-22T04:53:59;8.99;82.07
77218;DHT22;66214;51.302;17.068;2024-03-22T04:56:27;8.96;81.88
77218;DHT22;66214;51.302;17.068;2024-03-22T04:58:55;8.92;81.49
77218;DHT22;66214;51.302;17.068;2024-03-22T05:03:58;8.85;80.84
77218;DHT22;66214;51.302;17.068;2024-03-22T05:06:26;8.84;80.81
77218;DHT22;66214;51.302;17.068;2024-03-22T05:08:54;8.84;81.08
77218;DHT22;66214;51.302;17.068;2024-03-22T05:11:22;8.85;81.43
77218;DHT22;66214;51.302;17.068;2024-03-22T05:13:50;8.87;81.86
77218;DHT22;66214;51.302;17.068;2024-03-22T05:16:17;8.89;81.91
77218;DHT22;66214;51.302;17.068;2024-03-22T05:18:45;8.93;81.91
77218;DHT22;66214;51.302;17.068;2024-03-22T05:21:13;8.97;81.81
77218;DHT22;66214;51.302;17.068;2024-03-22T05:23:41;8.98;81.42
77218;DHT22;66214;51.302;17.068;2024-03-22T05:26:09;9.00;81.23
77218;DHT22;66214;51.302;17.068;2024-03-22T05:28:37;9.02;81.04
77218;DHT22;66214;51.302;17.068;2024-03-22T05:31:05;9.04;81.29
77218;DHT22;66214;51.302;17.068;2024-03-22T05:33:33;9.06;81.59
77218;DHT22;66214;51.302;17.068;2024-03-22T05:36:01;9.08;81.90
77218;DHT22;66214;51.302;17.068;2024-03-22T05:38:29;9.08;81.92
77218;DHT22;66214;51.302;17.068;2024-03-22T05:40:57;9.08;81.76
77218;DHT22;66214;51.302;17.068;2024-03-22T05:43:25;9.06;81.41
77218;DHT22;66214;51.302;17.068;2024-03-22T05:45:52;9.07;81.21
77218;DHT22;66214;51.302;17.068;2024-03-22T05:48:20;9.06;81.00
77218;DHT22;66214;51.302;17.068;2024-03-22T05:50:48;9.02;81.06
77218;DHT22;66214;51.302;17.068;2024-03-22T05:53:16;8.99;81.46
77218;DHT22;66214;51.302;17.068;2024-03-22T05:55:44;8.92;81.59
77218;DHT22;66214;51.302;17.068;2024-03-22T05:58:12;8.88;81.71
77218;DHT22;66214;51.302;17.068;2024-03-22T06:00:40;8.84;81.60
77218;DHT22;66214;51.302;17.068;2024-03-22T06:03:07;8.81;81.02
77218;DHT22;66214;51.302;17.068;2024-03-22T06:05:35;8.75;80.43
77218;DHT22;66214;51.302;17.068;2024-03-22T06:08:05;8.70;80.14
77218;DHT22;66214;51.302;17.068;2024-03-22T06:10:34;8.69;80.00
77218;DHT22;66214;51.302;17.068;2024-03-22T06:13:02;8.68;79.90
77218;DHT22;66214;51.302;17.068;2024-03-22T06:15:31;8.72;80.13
77218;DHT22;66214;51.302;17.068;2024-03-22T06:17:59;8.76;80.17
77218;DHT22;66214;51.302;17.068;2024-03-22T06:20:27;8.76;80.01
77218;DHT22;66214;51.302;17.068;2024-03-22T06:22:55;8.78;79.83
77218;DHT22;66214;51.302;17.068;2024-03-22T06:25:23;8.75;79.43
77218;DHT22;66214;51.302;17.068;2024-03-22T06:27:50;8.74;79.09
77218;DHT22;66214;51.302;17.068;2024-03-22T06:30:18;8.73;78.93
77218;DHT22;66214;51.302;17.068;2024-03-22T06:32:47;8.77;78.90
77218;DHT22;66214;51.302;17.068;2024-03-22T06:35:15;8.83;79.01
77218;DHT22;66214;51.302;17.068;2024-03-22T06:37:43;8.89;79.21
77218;DHT22;66214;51.302;17.068;2024-03-22T06:40:11;8.94;79.31
77218;DHT22;66214;51.302;17.068;2024-03-22T06:42:39;8.96;79.00
77218;DHT22;66214;51.302;17.068;2024-03-22T06:45:08;8.98;78.69
77218;DHT22;66214;51.302;17.068;2024-03-22T06:47:36;8.99;78.51
77218;DHT22;66214;51.302;17.068;2024-03-22T06:50:04;9.02;78.51
77218;DHT22;66214;51.302;17.068;2024-03-22T06:52:33;9.07;78.66
77218;DHT22;66214;51.302;17.068;2024-03-22T06:55:05;9.14;78.82
77218;DHT22;66214;51.302;17.068;2024-03-22T06:57:35;9.20;78.84
77218;DHT22;66214;51.302;17.068;2024-03-22T07:00:05;9.28;78.57
77218;DHT22;66214;51.302;17.068;2024-03-22T07:02:37;9.34;78.26
77218;DHT22;66214;51.302;17.068;2024-03-22T07:05:06;9.43;77.91
77218;DHT22;66214;51.302;17.068;2024-03-22T07:07:35;9.48;77.54
77218;DHT22;66214;51.302;17.068;2024-03-22T07:10:05;9.51;77.43
77218;DHT22;66214;51.302;17.068;2024-03-22T07:12:33;9.58;77.54
77218;DHT22;66214;51.302;17.068;2024-03-22T07:15:02;9.64;77.66
77218;DHT22;66214;51.302;17.068;2024-03-22T07:17:31;9.79;77.64
77218;DHT22;66214;51.302;17.068;2024-03-22T07:19:59;9.91;76.68
77218;DHT22;66214;51.302;17.068;2024-03-22T07:22:27;9.98;75.86
77218;DHT22;66214;51.302;17.068;2024-03-22T07:24:55;10.07;75.11
77218;DHT22;66214;51.302;17.068;2024-03-22T07:27:23;10.13;74.44
77218;DHT22;66214;51.302;17.068;2024-03-22T07:29:57;10.20;74.17
77218;DHT22;66214;51.302;17.068;2024-03-22T07:32:25;10.30;73.91
77218;DHT22;66214;51.302;17.068;2024-03-22T07:34:53;10.41;73.64
77218;DHT22;66214;51.302;17.068;2024-03-22T07:37:22;10.54;73.09
77218;DHT22;66214;51.302;17.068;2024-03-22T07:39:50;10.59;72.75
77218;DHT22;66214;51.302;17.068;2024-03-22T07:42:18;10.65;72.41
77218;DHT22;66214;51.302;17.068;2024-03-22T07:44:46;10.69;72.46
77218;DHT22;66214;51.302;17.068;2024-03-22T07:47:14;10.72;71.91
77218;DHT22;66214;51.302;17.068;2024-03-22T07:49:42;10.82;71.42
77218;DHT22;66214;51.302;17.068;2024-03-22T07:52:09;11.20;70.59
77218;DHT22;66214;51.302;17.068;2024-03-22T07:54:37;11.50;69.99
77218;DHT22;66214;51.302;17.068;2024-03-22T07:57:05;11.81;69.33
77218;DHT22;66214;51.302;17.068;2024-03-22T07:59:34;12.07;68.38
77218;DHT22;66214;51.302;17.068;2024-03-22T08:03:58;12.11;67.08
77218;DHT22;66214;51.302;17.068;2024-03-22T08:06:26;12.16;66.86
77218;DHT22;66214;51.302;17.068;2024-03-22T08:08:54;12.18;66.63
77218;DHT22;66214;51.302;17.068;2024-03-22T08:11:22;12.16;66.08
77218;DHT22;66214;51.302;17.068;2024-03-22T08:13:50;12.14;66.13
77218;DHT22;66214;51.302;17.068;2024-03-22T08:16:18;12.15;66.02
77218;DHT22;66214;51.302;17.068;2024-03-22T08:18:47;12.12;66.05
77218;DHT22;66214;51.302;17.068;2024-03-22T08:21:15;12.14;66.26
77218;DHT22;66214;51.302;17.068;2024-03-22T08:23:43;12.20;66.06
77218;DHT22;66214;51.302;17.068;2024-03-22T08:26:11;12.22;65.81
77218;DHT22;66214;51.302;17.068;2024-03-22T08:28:39;12.25;65.77
77218;DHT22;66214;51.302;17.068;2024-03-22T08:31:07;12.27;65.48
77218;DHT22;66214;51.302;17.068;2024-03-22T08:33:35;12.26;65.51
77218;DHT22;66214;51.302;17.068;2024-03-22T08:36:03;12.28;65.07
77218;DHT22;66214;51.302;17.068;2024-03-22T08:38:32;12.27;64.32
77218;DHT22;66214;51.302;17.068;2024-03-22T08:41:00;12.30;64.22
77218;DHT22;66214;51.302;17.068;2024-03-22T08:43:29;12.37;64.18
77218;DHT22;66214;51.302;17.068;2024-03-22T08:45:58;12.48;63.98
77218;DHT22;66214;51.302;17.068;2024-03-22T08:48:26;12.55;63.60
77218;DHT22;66214;51.302;17.068;2024-03-22T08:50:54;12.54;63.29
77218;DHT22;66214;51.302;17.068;2024-03-22T08:53:22;12.41;63.03
77218;DHT22;66214;51.302;17.068;2024-03-22T08:55:52;12.34;63.23
77218;DHT22;66214;51.302;17.068;2024-03-22T08:58:22;12.36;63.48
77218;DHT22;66214;51.302;17.068;2024-03-22T09:00:50;12.43;63.28
77218;DHT22;66214;51.302;17.068;2024-03-22T09:03:18;12.51;63.08
77218;DHT22;66214;51.302;17.068;2024-03-22T09:05:51;12.58;63.02
77218;DHT22;66214;51.302;17.068;2024-03-22T09:08:21;12.71;63.04
77218;DHT22;66214;51.302;17.068;2024-03-22T09:10:49;12.82;62.66
77218;DHT22;66214;51.302;17.068;2024-03-22T09:13:16;12.85;62.40
77218;DHT22;66214;51.302;17.068;2024-03-22T09:15:44;12.87;62.20
77218;DHT22;66214;51.302;17.068;2024-03-22T09:18:12;12.88;61.81
77218;DHT22;66214;51.302;17.068;2024-03-22T09:20:40;12.86;61.73
77218;DHT22;66214;51.302;17.068;2024-03-22T09:23:08;12.84;61.59
77218;DHT22;66214;51.302;17.068;2024-03-22T09:25:36;12.84;61.80
77218;DHT22;66214;51.302;17.068;2024-03-22T09:28:04;12.89;61.89
77218;DHT22;66214;51.302;17.068;2024-03-22T09:30:33;12.93;61.88
77218;DHT22;66214;51.302;17.068;2024-03-22T09:33:06;12.90;61.93
77218;DHT22;66214;51.302;17.068;2024-03-22T09:35:38;12.90;62.25
77218;DHT22;66214;51.302;17.068;2024-03-22T09:38:06;12.94;62.21
77218;DHT22;66214;51.302;17.068;2024-03-22T09:40:38;12.94;61.94
77218;DHT22;66214;51.302;17.068;2024-03-22T09:43:09;12.93;62.00
77218;DHT22;66214;51.302;17.068;2024-03-22T09:45:42;12.96;62.00
77218;DHT22;66214;51.302;17.068;2024-03-22T09:48:11;12.98;62.03
77218;DHT22;66214;51.302;17.068;2024-03-22T09:50:41;13.00;61.95
77218;DHT22;66214;51.302;17.068;2024-03-22T09:53:09;13.02;61.71
77218;DHT22;66214;51.302;17.068;2024-03-22T09:55:38;13.02;61.66
77218;DHT22;66214;51.302;17.068;2024-03-22T09:58:10;13.02;61.87
77218;DHT22;66214;51.302;17.068;2024-03-22T10:00:38;13.05;61.87
77218;DHT22;66214;51.302;17.068;2024-03-22T10:03:07;13.07;62.03
77218;DHT22;66214;51.302;17.068;2024-03-22T10:05:37;13.12;62.32
77218;DHT22;66214;51.302;17.068;2024-03-22T10:08:05;13.10;62.27
77218;DHT22;66214;51.302;17.068;2024-03-22T10:10:34;13.11;62.20
77218;DHT22;66214;51.302;17.068;2024-03-22T10:13:05;13.17;61.99
77218;DHT22;66214;51.302;17.068;2024-03-22T10:15:33;13.22;61.60
77218;DHT22;66214;51.302;17.068;2024-03-22T10:18:01;13.27;61.76
77218;DHT22;66214;51.302;17.068;2024-03-22T10:20:29;13.38;61.73
77218;DHT22;66214;51.302;17.068;2024-03-22T10:22:57;13.43;61.64
77218;DHT22;66214;51.302;17.068;2024-03-22T10:25:27;13.46;61.64
77218;DHT22;66214;51.302;17.068;2024-03-22T10:27:56;13.46;61.78
77218;DHT22;66214;51.302;17.068;2024-03-22T10:30:26;13.53;61.62
77218;DHT22;66214;51.302;17.068;2024-03-22T10:32:56;13.45;60.59
77218;DHT22;66214;51.302;17.068;2024-03-22T10:35:24;13.50;60.75
77218;DHT22;66214;51.302;17.068;2024-03-22T10:37:54;13.53;60.43
77218;DHT22;66214;51.302;17.068;2024-03-22T10:40:22;13.63;60.24
77218;DHT22;66214;51.302;17.068;2024-03-22T10:42:50;13.77;60.33
77218;DHT22;66214;51.302;17.068;2024-03-22T10:45:21;13.83;59.64
77218;DHT22;66214;51.302;17.068;2024-03-22T10:47:52;13.94;59.99
77218;DHT22;66214;51.302;17.068;2024-03-22T10:50:24;14.15;59.79
77218;DHT22;66214;51.302;17.068;2024-03-22T10:52:56;14.36;59.23
77218;DHT22;66214;51.302;17.068;2024-03-22T10:55:28;14.52;57.90
77218;DHT22;66214;51.302;17.068;2024-03-22T10:58:00;14.59;57.65
77218;DHT22;66214;51.302;17.068;2024-03-22T11:04:04;15.02;57.30
77218;DHT22;66214;51.302;17.068;2024-03-22T11:06:38;15.54;56.61
77218;DHT22;66214;51.302;17.068;2024-03-22T11:09:07;15.97;55.45
77218;DHT22;66214;51.302;17.068;2024-03-22T11:11:41;16.20;55.09
77218;DHT22;66214;51.302;17.068;2024-03-22T11:14:09;16.33;54.49
77218;DHT22;66214;51.302;17.068;2024-03-22T11:16:37;16.46;53.90
77218;DHT22;66214;51.302;17.068;2024-03-22T11:19:05;16.44;52.85
77218;DHT22;66214;51.302;17.068;2024-03-22T11:21:33;16.44;53.03
77218;DHT22;66214;51.302;17.068;2024-03-22T11:24:01;16.19;51.16
77218;DHT22;66214;51.302;17.068;2024-03-22T11:26:29;15.87;51.45
77218;DHT22;66214;51.302;17.068;2024-03-22T11:28:58;15.62;52.01
77218;DHT22;66214;51.302;17.068;2024-03-22T11:31:27;15.40;52.01
77218;DHT22;66214;51.302;17.068;2024-03-22T11:33:55;15.28;52.68
77218;DHT22;66214;51.302;17.068;2024-03-22T11:36:24;15.20;52.85
77218;DHT22;66214;51.302;17.068;2024-03-22T11:38:52;15.00;52.49
77218;DHT22;66214;51.302;17.068;2024-03-22T11:41:28;14.98;53.09
77218;DHT22;66214;51.302;17.068;2024-03-22T11:43:59;15.02;53.15
77218;DHT22;66214;51.302;17.068;2024-03-22T11:46:28;15.02;53.26
77218;DHT22;66214;51.302;17.068;2024-03-22T11:48:57;14.97;52.90
77218;DHT22;66214;51.302;17.068;2024-03-22T11:51:27;14.87;52.31
77218;DHT22;66214;51.302;17.068;2024-03-22T11:53:59;14.67;51.92
77218;DHT22;66214;51.302;17.068;2024-03-22T11:56:31;14.65;52.75
77218;DHT22;66214;51.302;17.068;2024-03-22T11:59:06;14.61;53.22
77218;DHT22;66214;51.302;17.068;2024-03-22T12:01:34;14.66;53.23
77218;DHT22;66214;51.302;17.068;2024-03-22T12:04:03;14.68;53.14
77218;DHT22;66214;51.302;17.068;2024-03-22T12:06:31;14.61;53.05
77218;DHT22;66214;51.302;17.068;2024-03-22T12:09:02;14.57;53.04
77218;DHT22;66214;51.302;17.068;2024-03-22T12:11:31;14.50;52.85
77218;DHT22;66214;51.302;17.068;2024-03-22T12:13:59;14.53;53.07
77218;DHT22;66214;51.302;17.068;2024-03-22T12:16:27;14.53;52.78
77218;DHT22;66214;51.302;17.068;2024-03-22T12:18:54;14.42;52.67
77218;DHT22;66214;51.302;17.068;2024-03-22T12:21:22;14.35;52.98
77218;DHT22;66214;51.302;17.068;2024-03-22T12:23:51;14.27;53.01
77218;DHT22;66214;51.302;17.068;2024-03-22T12:26:20;14.17;53.48
77218;DHT22;66214;51.302;17.068;2024-03-22T12:28:48;14.12;53.55
77218;DHT22;66214;51.302;17.068;2024-03-22T12:31:16;14.10;53.59
77218;DHT22;66214;51.302;17.068;2024-03-22T12:33:46;14.09;53.85
77218;DHT22;66214;51.302;17.068;2024-03-22T14:03:58;15.36;46.94
77218;DHT22;66214;51.302;17.068;2024-03-22T14:06:27;15.13;45.74
77218;DHT22;66214;51.302;17.068;2024-03-22T14:08:55;15.05;46.62
77218;DHT22;66214;51.302;17.068;2024-03-22T14:11:28;15.00;47.35
77218;DHT22;66214;51.302;17.068;2024-03-22T14:13:57;14.94;47.22
77218;DHT22;66214;51.302;17.068;2024-03-22T14:16:25;14.85;47.19
77218;DHT22;66214;51.302;17.068;2024-03-22T14:18:53;14.78;47.50
77218;DHT22;66214;51.302;17.068;2024-03-22T14:21:21;14.72;47.44
77218;DHT22;66214;51.302;17.068;2024-03-22T14:23:50;14.67;47.45
77218;DHT22;66214;51.302;17.068;2024-03-22T14:26:19;14.64;47.58
77218;DHT22;66214;51.302;17.068;2024-03-22T14:32:09;14.61;47.40
77218;DHT22;66214;51.302;17.068;2024-03-22T14:34:37;14.59;47.18
77218;DHT22;66214;51.302;17.068;2024-03-22T14:37:05;14.54;47.52
77218;DHT22;66214;51.302;17.068;2024-03-22T14:39:34;14.47;47.58
77218;DHT22;66214;51.302;17.068;2024-03-22T14:42:02;14.42;47.85
77218;DHT22;66214;51.302;17.068;2024-03-22T14:44:30;14.39;48.00
77218;DHT22;66214;51.302;17.068;2024-03-22T14:46:58;14.33;48.16
77218;DHT22;66214;51.302;17.068;2024-03-22T14:49:26;14.28;48.33
77218;DHT22;66214;51.302;17.068;2024-03-22T14:51:54;14.21;48.43
77218;DHT22;66214;51.302;17.068;2024-03-22T14:54:21;14.16;48.68
77218;DHT22;66214;51.302;17.068;2024-03-22T14:56:49;14.13;48.98
77218;DHT22;66214;51.302;17.068;2024-03-22T14:59:18;14.13;49.19
77218;DHT22;66214;51.302;17.068;2024-03-22T15:01:46;14.11;49.24
77218;DHT22;66214;51.302;17.068;2024-03-22T15:04:14;14.09;49.29
77218;DHT22;66214;51.302;17.068;2024-03-22T15:06:42;14.07;49.41
77218;DHT22;66214;51.302;17.068;2024-03-22T15:09:12;14.03;49.66
77218;DHT22;66214;51.302;17.068;2024-03-22T15:11:41;13.99;49.84
77218;DHT22;66214;51.302;17.068;2024-03-22T15:14:09;13.98;50.04
77218;DHT22;66214;51.302;17.068;2024-03-22T15:16:38;13.95;50.19
77218;DHT22;66214;51.302;17.068;2024-03-22T15:19:09;13.93;50.40
77218;DHT22;66214;51.302;17.068;2024-03-22T15:21:37;13.88;50.72
77218;DHT22;66214;51.302;17.068;2024-03-22T15:24:05;13.85;50.97
77218;DHT22;66214;51.302;17.068;2024-03-22T15:26:35;13.82;51.31
77218;DHT22;66214;51.302;17.068;2024-03-22T15:29:03;13.79;51.55
77218;DHT22;66214;51.302;17.068;2024-03-22T15:31:32;13.77;51.83
77218;DHT22;66214;51.302;17.068;2024-03-22T15:34:00;13.76;52.15
77218;DHT22;66214;51.302;17.068;2024-03-22T15:36:28;13.72;52.59
77218;DHT22;66214;51.302;17.068;2024-03-22T15:38:56;13.71;52.78
77218;DHT22;66214;51.302;17.068;2024-03-22T15:41:25;13.69;53.10
77218;DHT22;66214;51.302;17.068;2024-03-22T15:43:53;13.67;53.18
77218;DHT22;66214;51.302;17.068;2024-03-22T15:46:21;13.67;53.26
77218;DHT22;66214;51.302;17.068;2024-03-22T15:48:49;13.67;53.47
77218;DHT22;66214;51.302;17.068;2024-03-22T15:51:19;13.66;53.91
77218;DHT22;66214;51.302;17.068;2024-03-22T15:53:47;13.65;53.99
77218;DHT22;66214;51.302;17.068;2024-03-22T15:56:16;13.64;54.30
77218;DHT22;66214;51.302;17.068;2024-03-22T16:02:09;13.60;55.02
77218;DHT22;66214;51.302;17.068;2024-03-22T16:04:37;13.60;55.01
77218;DHT22;66214;51.302;17.068;2024-03-22T16:07:08;13.58;55.03
77218;DHT22;66214;51.302;17.068;2024-03-22T16:09:36;13.56;55.26
77218;DHT22;66214;51.302;17.068;2024-03-22T16:12:05;13.61;55.25
77218;DHT22;66214;51.302;17.068;2024-03-22T16:14:36;13.69;55.33
77218;DHT22;66214;51.302;17.068;2024-03-22T16:17:06;13.70;55.69
77218;DHT22;66214;51.302;17.068;2024-03-22T16:19:34;13.71;55.82
77218;DHT22;66214;51.302;17.068;2024-03-22T16:22:03;13.69;56.42
77218;DHT22;66214;51.302;17.068;2024-03-22T16:24:32;13.65;57.01
77218;DHT22;66214;51.302;17.068;2024-03-22T16:27:00;13.60;57.29
77218;DHT22;66214;51.302;17.068;2024-03-22T16:29:28;13.56;57.82
77218;DHT22;66214;51.302;17.068;2024-03-22T16:31:56;13.50;58.38
77218;DHT22;66214;51.302;17.068;2024-03-22T16:34:24;13.44;58.65
77218;DHT22;66214;51.302;17.068;2024-03-22T16:36:52;13.40;58.72
77218;DHT22;66214;51.302;17.068;2024-03-22T16:39:21;13.33;59.14
77218;DHT22;66214;51.302;17.068;2024-03-22T16:41:51;13.29;59.16
77218;DHT22;66214;51.302;17.068;2024-03-22T16:44:19;13.26;59.26
77218;DHT22;66214;51.302;17.068;2024-03-22T16:46:47;13.20;59.34
77218;DHT22;66214;51.302;17.068;2024-03-22T16:49:15;13.15;59.50
77218;DHT22;66214;51.302;17.068;2024-03-22T16:51:43;13.10;59.94
77218;DHT22;66214;51.302;17.068;2024-03-22T16:54:12;13.06;59.99
77218;DHT22;66214;51.302;17.068;2024-03-22T16:56:40;13.03;60.07
77218;DHT22;66214;51.302;17.068;2024-03-22T16:59:09;13.00;60.01
77218;DHT22;66214;51.302;17.068;2024-03-22T17:03:58;12.90;60.61
77218;DHT22;66214;51.302;17.068;2024-03-22T17:06:26;12.89;60.66
77218;DHT22;66214;51.302;17.068;2024-03-22T17:08:54;12.86;60.67
77218;DHT22;66214;51.302;17.068;2024-03-22T17:11:22;12.84;60.66
77218;DHT22;66214;51.302;17.068;2024-03-22T17:13:51;12.82;60.56
77218;DHT22;66214;51.302;17.068;2024-03-22T17:16:19;12.80;60.67
77218;DHT22;66214;51.302;17.068;2024-03-22T17:18:47;12.78;60.60
77218;DHT22;66214;51.302;17.068;2024-03-22T17:21:17;12.76;60.82
77218;DHT22;66214;51.302;17.068;2024-03-22T17:23:45;12.72;60.98
77218;DHT22;66214;51.302;17.068;2024-03-22T17:26:14;12.70;61.04